createdAt,value
2023-05-11T00:00:15.237Z,95.80
2023-05-11T00:02:45.950Z,95.80
2023-05-11T00:05:16.587Z,95.90
2023-05-11T00:07:45.704Z,95.90
2023-05-11T00:10:14.710Z,96.00
2023-05-11T00:12:43.607Z,96.10
2023-05-11T00:15:13.223Z,96.10
2023-05-11T00:17:42.159Z,96.20
2023-05-11T00:20:11.762Z,96.40
2023-05-11T00:22:44.671Z,96.50
2023-05-11T00:25:13.828Z,96.60
2023-05-11T00:27:46.229Z,96.70
2023-05-11T00:30:16.954Z,96.80
2023-05-11T00:32:46.532Z,97.10
2023-05-11T00:35:15.517Z,97.10
2023-05-11T00:37:45.969Z,97.20
2023-05-11T00:40:15.180Z,97.10
2023-05-11T00:42:44.269Z,97.00
2023-05-11T00:45:13.239Z,97.00
2023-05-11T00:47:43.155Z,97.00
2023-05-11T00:50:12.790Z,96.90
2023-05-11T00:52:42.318Z,96.90
2023-05-11T00:55:15.057Z,96.90
2023-05-11T00:57:44.164Z,96.80
2023-05-11T01:00:14.127Z,96.90
2023-05-11T01:02:43.784Z,96.90
2023-05-11T01:05:13.314Z,96.70
2023-05-11T01:07:50.521Z,96.70
2023-05-11T01:10:28.052Z,96.70
2023-05-11T01:13:05.845Z,97.10
2023-05-11T01:15:40.216Z,96.90
2023-05-11T01:18:17.544Z,97.20
2023-05-11T01:20:50.159Z,97.00
2023-05-11T01:23:43.504Z,97.00
2023-05-11T01:26:35.329Z,97.10
2023-05-11T01:29:30.010Z,97.20
2023-05-11T01:32:01.437Z,97.20
2023-05-11T01:34:34.435Z,97.00
2023-05-11T01:37:10.252Z,97.00
2023-05-11T01:39:42.465Z,97.10
2023-05-11T01:42:14.237Z,97.20
2023-05-11T01:44:48.164Z,97.10
2023-05-11T01:47:20.131Z,97.10
2023-05-11T01:49:49.819Z,97.00
2023-05-11T01:52:21.908Z,97.10
2023-05-11T01:54:53.819Z,97.20
2023-05-11T01:57:24.581Z,97.30
2023-05-11T02:00:12.747Z,97.40
2023-05-11T02:02:48.122Z,97.40
2023-05-11T02:05:25.278Z,97.40
2023-05-11T02:07:57.109Z,97.40
2023-05-11T02:10:27.974Z,97.50
2023-05-11T02:12:58.320Z,97.50
2023-05-11T02:15:29.800Z,97.50
2023-05-11T02:18:01.462Z,97.70
2023-05-11T02:20:30.861Z,97.80
2023-05-11T02:23:00.277Z,98.00
2023-05-11T02:25:31.144Z,98.00
2023-05-11T02:28:00.304Z,98.00
2023-05-11T02:30:33.349Z,97.90
2023-05-11T02:33:07.897Z,97.90
2023-05-11T02:35:40.743Z,97.90
2023-05-11T02:38:11.698Z,97.80
2023-05-11T02:40:47.249Z,97.90
2023-05-11T02:43:24.170Z,97.90
2023-05-11T02:46:03.568Z,97.70
2023-05-11T02:48:40.313Z,97.60
2023-05-11T02:51:13.174Z,97.60
2023-05-11T02:53:50.493Z,97.50
2023-05-11T02:56:20.152Z,97.50
2023-05-11T02:58:50.266Z,97.50
2023-05-11T03:01:23.516Z,97.50
2023-05-11T03:03:54.780Z,97.50
2023-05-11T03:06:25.879Z,97.70
2023-05-11T03:08:55.155Z,97.70
2023-05-11T03:11:25.138Z,97.70
2023-05-11T03:13:54.346Z,97.80
2023-05-11T03:16:24.115Z,97.80
2023-05-11T03:18:55.764Z,97.80
2023-05-11T03:21:27.719Z,97.80
2023-05-11T03:23:59.790Z,97.80
2023-05-11T03:26:31.771Z,97.70
2023-05-11T03:29:02.504Z,97.60
2023-05-11T03:31:31.602Z,97.60
2023-05-11T03:34:02.904Z,97.60
2023-05-11T03:36:38.025Z,97.60
2023-05-11T03:39:09.717Z,97.60
2023-05-11T03:41:41.717Z,97.70
2023-05-11T03:44:14.225Z,97.80
2023-05-11T03:46:46.026Z,97.80
2023-05-11T03:49:17.916Z,97.70
2023-05-11T03:51:47.788Z,97.70
2023-05-11T03:54:16.929Z,97.80
2023-05-11T03:56:45.961Z,97.70
2023-05-11T03:59:17.709Z,97.60
2023-05-11T04:02:05.452Z,97.50
2023-05-11T04:04:36.162Z,97.40
2023-05-11T04:07:05.445Z,97.40
2023-05-11T04:09:34.405Z,97.50
2023-05-11T04:12:03.216Z,97.30
2023-05-11T04:14:32.004Z,97.30
2023-05-11T04:17:02.151Z,97.20
2023-05-11T04:19:31.108Z,97.20
2023-05-11T04:22:01.432Z,97.20
2023-05-11T04:24:30.348Z,97.40
2023-05-11T04:27:00.488Z,97.40
2023-05-11T04:29:29.467Z,97.60
2023-05-11T04:31:58.459Z,97.30
2023-05-11T04:34:29.034Z,97.50
2023-05-11T04:36:58.360Z,97.20
2023-05-11T04:39:29.658Z,97.00
2023-05-11T04:42:17.234Z,96.90
2023-05-11T04:44:50.150Z,97.00
2023-05-11T04:47:26.490Z,97.00
2023-05-11T04:49:55.989Z,96.90
2023-05-11T04:52:25.080Z,96.80
2023-05-11T04:54:56.533Z,96.70
2023-05-11T04:57:25.742Z,96.70
2023-05-11T04:59:54.656Z,96.70
2023-05-11T05:02:23.664Z,96.80
2023-05-11T05:05:11.625Z,96.80
2023-05-11T05:07:40.617Z,96.40
2023-05-11T05:10:12.611Z,96.30
2023-05-11T05:12:41.840Z,96.20
2023-05-11T05:15:11.737Z,96.10
2023-05-11T05:17:40.891Z,96.00
2023-05-11T05:20:11.035Z,95.90
2023-05-11T05:22:40.046Z,96.00
2023-05-11T05:25:12.397Z,95.70
2023-05-11T05:27:41.772Z,95.50
2023-05-11T05:30:15.522Z,95.20
2023-05-11T05:32:44.925Z,95.20
2023-05-11T05:35:13.774Z,95.00
2023-05-11T05:37:44.467Z,95.00
2023-05-11T05:40:15.425Z,94.60
2023-05-11T05:42:49.240Z,94.60
2023-05-11T05:45:22.700Z,94.20
2023-05-11T05:47:52.939Z,94.00
2023-05-11T05:50:23.046Z,93.80
2023-05-11T05:52:51.996Z,93.80
2023-05-11T05:55:24.126Z,93.80
2023-05-11T05:57:54.272Z,93.80
2023-05-11T06:00:23.217Z,93.90
2023-05-11T06:03:01.263Z,93.90
2023-05-11T06:05:30.167Z,93.80
2023-05-11T06:08:09.950Z,93.60
2023-05-11T06:10:42.450Z,93.90
2023-05-11T06:13:12.813Z,93.50
2023-05-11T06:15:43.945Z,93.60
2023-05-11T06:18:34.831Z,93.70
2023-05-11T06:21:05.765Z,93.40
2023-05-11T06:23:35.299Z,93.60
2023-05-11T06:26:05.882Z,93.60
2023-05-11T06:28:35.646Z,93.60
2023-05-11T06:31:07.921Z,93.40
2023-05-11T06:33:38.996Z,93.00
2023-05-11T06:36:13.227Z,92.40
2023-05-11T06:39:01.549Z,92.50
2023-05-11T06:41:32.565Z,92.40
2023-05-11T06:44:01.843Z,92.20
2023-05-11T06:46:38.140Z,91.80
2023-05-11T06:49:07.209Z,91.50
2023-05-11T06:51:36.159Z,91.30
2023-05-11T06:54:05.236Z,91.30
2023-05-11T06:56:37.355Z,91.30
2023-05-11T06:59:07.034Z,91.50
2023-05-11T07:01:37.560Z,91.40
2023-05-11T07:04:07.593Z,91.50
2023-05-11T07:06:36.678Z,91.40
2023-05-11T07:09:05.603Z,90.90
2023-05-11T07:11:34.508Z,90.50
2023-05-11T07:14:05.005Z,90.30
2023-05-11T07:16:38.186Z,90.00
2023-05-11T07:19:14.797Z,89.60
2023-05-11T07:21:43.845Z,88.70
2023-05-11T07:24:12.618Z,87.80
2023-05-11T07:26:41.489Z,87.80
2023-05-11T07:29:11.785Z,87.90
2023-05-11T07:31:41.076Z,86.10
2023-05-11T07:34:09.968Z,86.80
2023-05-11T07:36:38.834Z,85.40
2023-05-11T07:39:07.811Z,83.60
2023-05-11T07:41:36.731Z,84.20
2023-05-11T07:44:05.896Z,84.50
2023-05-11T07:46:36.461Z,84.30
2023-05-11T07:49:15.680Z,82.80
2023-05-11T07:51:50.918Z,82.80
2023-05-11T07:54:21.653Z,81.20
2023-05-11T07:56:51.492Z,81.20
2023-05-11T07:59:20.373Z,82.00
2023-05-11T08:01:50.690Z,82.00
2023-05-11T08:04:19.681Z,81.70
2023-05-11T08:06:48.490Z,81.80
2023-05-11T08:09:17.702Z,81.60
2023-05-11T08:11:46.693Z,81.50
2023-05-11T08:14:15.934Z,81.20
2023-05-11T08:16:45.017Z,80.30
2023-05-11T08:19:15.391Z,80.80
2023-05-11T08:21:46.622Z,80.90
2023-05-11T08:24:15.729Z,79.40
2023-05-11T08:26:45.645Z,79.50
2023-05-11T08:29:14.531Z,80.40
2023-05-11T08:31:43.623Z,80.00
2023-05-11T08:34:21.059Z,80.30
2023-05-11T08:36:55.132Z,80.00
2023-05-11T08:39:45.459Z,80.10
2023-05-11T08:42:17.805Z,80.20
2023-05-11T08:44:46.934Z,80.20
2023-05-11T08:47:23.156Z,80.00
2023-05-11T08:49:54.557Z,80.20
2023-05-11T08:52:23.547Z,80.40
2023-05-11T08:54:55.527Z,80.10
2023-05-11T08:57:25.319Z,80.50
2023-05-11T08:59:58.577Z,80.10
2023-05-11T09:02:28.894Z,80.20
2023-05-11T09:05:10.175Z,80.50
2023-05-11T09:07:42.299Z,80.70
2023-05-11T09:10:13.771Z,81.00
2023-05-11T09:12:42.977Z,81.30
2023-05-11T09:15:13.039Z,81.50
2023-05-11T09:17:42.184Z,81.40
2023-05-11T09:20:13.681Z,81.60
2023-05-11T09:22:47.698Z,82.30
2023-05-11T09:25:18.401Z,83.00
2023-05-11T09:27:48.481Z,83.10
2023-05-11T09:33:08.949Z,83.00
2023-05-11T09:35:39.404Z,82.60
2023-05-11T09:38:10.043Z,82.90
2023-05-11T09:40:41.507Z,81.90
2023-05-11T09:43:20.920Z,82.30
2023-05-11T09:45:51.283Z,81.90
2023-05-11T09:48:28.472Z,82.20
2023-05-11T09:51:09.615Z,82.50
2023-05-11T09:53:44.120Z,82.70
2023-05-11T09:56:15.817Z,82.20
2023-05-11T09:58:49.721Z,82.40
2023-05-11T10:01:20.011Z,82.00
2023-05-11T10:03:50.432Z,81.00
2023-05-11T10:06:21.233Z,81.20
2023-05-11T10:08:50.792Z,81.70
2023-05-11T10:11:26.364Z,81.40
2023-05-11T10:13:56.210Z,81.70
2023-05-11T10:16:25.235Z,81.40
2023-05-11T10:18:54.276Z,81.00
2023-05-11T10:21:25.345Z,80.70
2023-05-11T10:23:54.672Z,81.00
2023-05-11T10:26:23.584Z,80.60
2023-05-11T10:28:53.943Z,80.10
2023-05-11T10:31:24.766Z,79.90
2023-05-11T10:33:54.072Z,79.30
2023-05-11T10:36:26.435Z,79.30
2023-05-11T10:38:55.848Z,79.50
2023-05-11T10:41:40.432Z,80.20
2023-05-11T10:44:35.723Z,80.30
2023-05-11T10:47:22.269Z,80.60
2023-05-11T10:50:16.504Z,80.00
2023-05-11T10:53:06.203Z,80.10
2023-05-11T10:55:49.462Z,80.30
2023-05-11T10:58:31.519Z,80.10
2023-05-11T11:01:38.832Z,80.20
2023-05-11T11:04:25.382Z,79.70
2023-05-11T11:07:07.158Z,79.40
2023-05-11T11:09:57.740Z,79.00
2023-05-11T11:12:28.047Z,79.10
2023-05-11T11:14:58.972Z,79.40
2023-05-11T11:17:31.925Z,79.60
2023-05-11T11:20:02.522Z,79.40
2023-05-11T11:22:52.552Z,78.90
2023-05-11T11:25:55.640Z,78.40
2023-05-11T11:28:25.027Z,78.10
2023-05-11T11:31:24.267Z,78.70
2023-05-11T11:33:53.393Z,78.60
2023-05-11T11:37:03.624Z,78.30
2023-05-11T11:39:50.366Z,78.50
2023-05-11T11:42:33.838Z,79.00
2023-05-11T11:45:31.300Z,78.70
2023-05-11T11:48:16.895Z,78.50
2023-05-11T11:50:48.475Z,77.90
2023-05-11T11:54:05.163Z,78.30
2023-05-11T11:56:46.408Z,78.30
2023-05-11T11:59:17.221Z,78.70
2023-05-11T12:01:47.410Z,79.00
2023-05-11T12:04:46.183Z,78.70
2023-05-11T12:07:16.798Z,77.40
2023-05-11T12:09:47.785Z,76.90
2023-05-11T12:12:20.098Z,77.00
2023-05-11T12:14:50.580Z,77.60
2023-05-11T12:17:28.463Z,77.90
2023-05-11T12:20:12.060Z,78.10
2023-05-11T12:22:41.218Z,77.80
2023-05-11T12:25:12.782Z,78.00
2023-05-11T12:27:50.148Z,78.00
2023-05-11T12:30:24.543Z,77.70
2023-05-11T12:32:57.497Z,77.30
2023-05-11T12:35:28.124Z,77.40
2023-05-11T12:37:58.528Z,77.90
2023-05-11T12:40:27.725Z,78.00
2023-05-11T12:42:57.930Z,78.20
2023-05-11T12:45:31.026Z,78.20
2023-05-11T12:48:00.882Z,77.90
2023-05-11T12:50:29.900Z,77.50
2023-05-11T12:53:13.811Z,76.90
2023-05-11T12:55:43.104Z,76.80
2023-05-11T12:58:14.547Z,76.30
2023-05-11T13:00:55.433Z,76.50
2023-05-11T13:03:25.646Z,76.90
2023-05-11T13:06:08.478Z,76.90
2023-05-11T13:08:38.183Z,77.00
2023-05-11T13:11:20.605Z,76.70
2023-05-11T13:13:49.661Z,77.10
2023-05-11T13:16:27.585Z,77.70
2023-05-11T13:19:01.129Z,77.80
2023-05-11T13:21:30.521Z,78.20
2023-05-11T13:23:59.300Z,78.20
2023-05-11T13:26:30.881Z,77.80
2023-05-11T13:29:10.127Z,78.00
2023-05-11T13:31:46.681Z,78.20
2023-05-11T13:34:16.058Z,78.40
2023-05-11T13:36:45.172Z,79.00
2023-05-11T13:39:14.291Z,78.80
2023-05-11T13:41:43.384Z,79.10
2023-05-11T13:44:12.228Z,79.00
2023-05-11T13:46:41.188Z,78.20
2023-05-11T13:49:11.688Z,78.00
2023-05-11T13:51:40.978Z,77.60
2023-05-11T13:54:10.222Z,77.70
2023-05-11T13:56:39.181Z,77.50
2023-05-11T13:59:08.029Z,77.40
2023-05-11T14:01:37.017Z,77.10
2023-05-11T14:04:06.372Z,77.20
2023-05-11T14:06:37.233Z,77.50
2023-05-11T14:09:06.169Z,77.70
2023-05-11T14:11:35.654Z,77.70
2023-05-11T14:14:06.094Z,77.40
2023-05-11T14:16:35.109Z,77.50
2023-05-11T14:19:04.078Z,77.70
2023-05-11T14:21:33.437Z,77.90
2023-05-11T14:24:11.374Z,78.00
2023-05-11T14:26:41.706Z,78.00
2023-05-11T14:29:14.316Z,77.70
2023-05-11T14:31:45.129Z,77.70
2023-05-11T14:34:14.046Z,78.50
2023-05-11T14:36:42.976Z,78.20
2023-05-11T14:39:13.283Z,78.10
2023-05-11T14:41:42.150Z,78.00
2023-05-11T14:44:11.833Z,78.20
2023-05-11T14:46:40.948Z,77.80
2023-05-11T14:49:09.985Z,78.00
2023-05-11T14:51:39.604Z,78.70
2023-05-11T14:54:08.592Z,78.60
2023-05-11T14:56:38.859Z,78.90
2023-05-11T14:59:07.997Z,79.10
2023-05-11T15:01:37.082Z,79.30
2023-05-11T15:04:06.251Z,79.30
2023-05-11T15:06:35.190Z,79.10
2023-05-11T15:09:04.394Z,79.20
2023-05-11T15:11:33.794Z,79.50
2023-05-11T15:14:04.153Z,79.80
2023-05-11T15:16:33.189Z,79.40
2023-05-11T15:19:08.718Z,79.50
2023-05-11T15:21:38.069Z,79.60
2023-05-11T15:24:10.675Z,79.70
2023-05-11T15:26:39.941Z,79.60
2023-05-11T15:29:10.425Z,79.80
2023-05-11T15:31:39.308Z,79.70
2023-05-11T15:34:08.577Z,79.80
2023-05-11T15:36:37.395Z,79.70
2023-05-11T15:39:06.298Z,80.00
2023-05-11T15:41:36.308Z,79.90
2023-05-11T15:44:05.876Z,80.00
2023-05-11T15:46:37.533Z,80.00
2023-05-11T15:49:06.618Z,80.10
2023-05-11T15:51:37.559Z,80.30
2023-05-11T15:54:06.758Z,80.40
2023-05-11T15:56:35.887Z,80.50
2023-05-11T15:59:04.945Z,80.20
2023-05-11T16:01:34.626Z,80.20
2023-05-11T16:04:05.338Z,80.20
2023-05-11T16:06:35.795Z,80.30
2023-05-11T16:09:05.081Z,80.50
2023-05-11T16:11:34.086Z,80.70
2023-05-11T16:14:02.875Z,80.60
2023-05-11T16:16:31.927Z,80.70
2023-05-11T16:19:01.234Z,80.80
2023-05-11T16:21:33.253Z,81.10
2023-05-11T16:24:02.197Z,81.40
2023-05-11T16:26:31.812Z,81.50
2023-05-11T16:29:00.670Z,81.50
2023-05-11T16:31:29.684Z,81.40
2023-05-11T16:33:58.504Z,81.50
2023-05-11T16:36:28.445Z,81.60
2023-05-11T16:38:59.013Z,81.70
2023-05-11T16:41:28.820Z,81.70
2023-05-11T16:43:57.659Z,82.00
2023-05-11T16:46:26.818Z,82.20
2023-05-11T16:48:57.327Z,82.40
2023-05-11T16:51:29.525Z,82.60
2023-05-11T16:53:59.841Z,82.70
2023-05-11T16:56:28.848Z,82.90
2023-05-11T16:58:58.116Z,83.40
2023-05-11T17:01:26.968Z,82.80
2023-05-11T17:03:57.468Z,83.00
2023-05-11T17:06:27.715Z,83.20
2023-05-11T17:08:56.768Z,83.30
2023-05-11T17:11:27.110Z,83.70
2023-05-11T17:13:56.521Z,84.00
2023-05-11T17:16:25.610Z,84.00
2023-05-11T17:18:55.802Z,84.00
2023-05-11T17:21:25.908Z,84.10
2023-05-11T17:23:54.702Z,84.10
2023-05-11T17:26:27.475Z,84.30
2023-05-11T17:29:02.856Z,84.40
2023-05-11T17:31:32.022Z,84.70
2023-05-11T17:34:01.451Z,84.70
2023-05-11T17:36:32.708Z,85.00
2023-05-11T17:39:01.696Z,85.30
2023-05-11T17:41:33.911Z,85.20
2023-05-11T17:44:04.637Z,85.20
2023-05-11T17:46:34.720Z,85.30
2023-05-11T17:49:04.182Z,85.40
2023-05-11T17:51:33.266Z,85.40
2023-05-11T17:54:02.402Z,85.40
2023-05-11T17:56:31.596Z,85.40
2023-05-11T17:59:01.148Z,85.50
2023-05-11T18:01:32.522Z,85.80
2023-05-11T18:04:02.861Z,85.80
2023-05-11T18:06:32.046Z,86.10
2023-05-11T18:09:01.027Z,86.00
2023-05-11T18:11:30.252Z,86.20
2023-05-11T18:13:59.612Z,86.20
2023-05-11T18:16:28.594Z,86.50
2023-05-11T18:18:59.986Z,86.80
2023-05-11T18:21:29.062Z,87.00
2023-05-11T18:23:57.946Z,87.40
2023-05-11T18:26:27.025Z,87.70
2023-05-11T18:28:56.274Z,87.90
2023-05-11T18:31:25.027Z,88.10
2023-05-11T18:33:54.055Z,88.10
2023-05-11T18:36:24.311Z,88.30
2023-05-11T18:38:53.996Z,88.50
2023-05-11T18:41:23.037Z,88.50
2023-05-11T18:43:53.030Z,88.70
2023-05-11T18:46:22.044Z,88.70
2023-05-11T18:48:53.216Z,88.90
2023-05-11T18:51:24.005Z,89.10
2023-05-11T18:54:11.688Z,89.40
2023-05-11T18:56:40.636Z,89.50
2023-05-11T18:59:17.197Z,89.50
2023-05-11T19:01:48.795Z,89.60
2023-05-11T19:04:20.099Z,89.70
2023-05-11T19:06:50.670Z,89.90
2023-05-11T19:09:38.296Z,90.00
2023-05-11T19:12:07.767Z,90.10
2023-05-11T19:14:56.399Z,90.10
2023-05-11T19:17:25.506Z,90.10
2023-05-11T19:19:54.360Z,90.20
2023-05-11T19:22:25.480Z,90.30
2023-05-11T19:24:54.323Z,90.50
2023-05-11T19:27:23.468Z,90.40
2023-05-11T19:29:52.387Z,90.50
2023-05-11T19:32:23.624Z,90.50
2023-05-11T19:34:52.741Z,90.60
2023-05-11T19:37:21.760Z,90.60
2023-05-11T19:39:52.392Z,90.70
2023-05-11T19:42:40.176Z,90.80
2023-05-11T19:45:11.712Z,90.70
2023-05-11T19:47:44.904Z,90.70
2023-05-11T19:50:14.967Z,90.80
2023-05-11T19:52:43.801Z,90.90
2023-05-11T19:55:14.023Z,90.90
2023-05-11T19:57:43.117Z,90.90
2023-05-11T20:00:13.347Z,91.00
2023-05-11T20:02:42.321Z,91.00
2023-05-11T20:05:13.029Z,91.00
2023-05-11T20:07:42.132Z,91.10
2023-05-11T20:10:11.288Z,91.10
2023-05-11T20:12:41.697Z,91.20
2023-05-11T20:15:11.668Z,91.20
2023-05-11T20:17:41.501Z,91.20
2023-05-11T20:20:11.816Z,91.30
2023-05-11T20:22:41.803Z,91.20
2023-05-11T20:25:18.498Z,91.10
2023-05-11T20:27:49.545Z,91.20
2023-05-11T20:30:18.842Z,91.20
2023-05-11T20:35:20.071Z,91.20
2023-05-11T20:37:49.082Z,91.20
2023-05-11T20:40:18.228Z,91.20
2023-05-11T20:42:48.610Z,91.20
2023-05-11T20:45:17.567Z,91.20
2023-05-11T20:47:46.555Z,91.20
2023-05-11T20:50:16.289Z,91.20
2023-05-11T20:52:45.347Z,91.20
2023-05-11T20:55:14.447Z,91.20
2023-05-11T20:57:43.359Z,91.10
2023-05-11T21:00:16.612Z,91.10
2023-05-11T21:03:04.843Z,91.10
2023-05-11T21:05:33.953Z,91.10
2023-05-11T21:08:03.821Z,91.10
2023-05-11T21:10:33.070Z,91.10
2023-05-11T21:13:04.877Z,91.10
2023-05-11T21:15:35.841Z,91.00
2023-05-11T21:18:04.923Z,91.10
2023-05-11T21:20:33.830Z,91.00
2023-05-11T21:23:02.768Z,90.90
2023-05-11T21:25:31.781Z,91.00
2023-05-11T21:28:01.207Z,91.00
2023-05-11T21:30:30.068Z,91.00
2023-05-11T21:33:00.876Z,91.00
2023-05-11T21:35:29.977Z,91.00
2023-05-11T21:37:59.258Z,91.00
2023-05-11T21:40:28.167Z,91.00
2023-05-11T21:42:57.038Z,91.00
2023-05-11T21:45:25.904Z,91.10
2023-05-11T21:47:54.797Z,91.10
2023-05-11T21:50:25.363Z,91.20
2023-05-11T21:52:54.355Z,91.10
2023-05-11T21:55:23.465Z,91.10
2023-05-11T21:57:52.886Z,91.10
2023-05-11T22:00:23.241Z,91.20
2023-05-11T22:02:52.832Z,91.40
2023-05-11T22:05:21.958Z,91.50
2023-05-11T22:07:54.124Z,91.60
2023-05-11T22:10:29.378Z,91.70
2023-05-11T22:12:58.416Z,91.80
2023-05-11T22:15:28.112Z,91.90
2023-05-11T22:17:57.218Z,91.90
2023-05-11T22:20:26.122Z,91.90
2023-05-11T22:22:56.435Z,91.90
2023-05-11T22:25:25.729Z,91.90
2023-05-11T22:27:57.595Z,91.90
2023-05-11T22:30:26.453Z,91.90
2023-05-11T22:33:14.090Z,91.90
2023-05-11T22:35:43.098Z,91.90
2023-05-11T22:38:13.236Z,92.00
2023-05-11T22:40:42.124Z,92.10
2023-05-11T22:43:10.966Z,92.10
2023-05-11T22:45:40.293Z,92.20
2023-05-11T22:48:09.231Z,92.30
2023-05-11T22:50:38.097Z,92.30
2023-05-11T22:53:07.159Z,92.40
2023-05-11T22:55:37.479Z,92.50
2023-05-11T22:58:06.513Z,92.50
2023-05-11T23:00:35.943Z,92.50
2023-05-11T23:03:05.272Z,92.60
2023-05-11T23:05:34.262Z,92.70
2023-05-11T23:08:03.185Z,92.70
2023-05-11T23:10:32.305Z,92.80
2023-05-11T23:13:02.504Z,92.80
2023-05-11T23:15:32.190Z,92.90
2023-05-11T23:18:01.362Z,92.80
2023-05-11T23:20:30.496Z,92.80
2023-05-11T23:22:59.342Z,92.80
2023-05-11T23:25:28.304Z,92.70
2023-05-11T23:27:57.156Z,92.70
2023-05-11T23:30:27.480Z,92.70
2023-05-11T23:32:56.540Z,92.70
2023-05-11T23:35:25.308Z,92.60
2023-05-11T23:37:54.203Z,92.50
2023-05-11T23:40:23.048Z,92.40
2023-05-11T23:42:51.847Z,92.50
2023-05-11T23:45:20.757Z,92.60
2023-05-11T23:47:51.314Z,92.70
2023-05-11T23:50:39.047Z,92.80
2023-05-11T23:53:07.872Z,92.80
2023-05-11T23:55:36.782Z,92.90
2023-05-11T23:58:05.540Z,92.90
